sensor_id;sensor_type;location;lat;lon;timestamp;P1;durP1;ratioP1;P2;durP2;ratioP2
18711;SDS011;9485;49.386;8.674;2023-12-28T00:01:49;5.37;;;4.30;;
18711;SDS011;9485;49.386;8.674;2023-12-28T00:07:10;4.80;;;4.13;;
18711;SDS011;9485;49.386;8.674;2023-12-28T00:12:33;3.83;;;3.43;;
18711;SDS011;9485;49.386;8.674;2023-12-28T00:17:53;5.67;;;3.97;;
18711;SDS011;9485;49.386;8.674;2023-12-28T00:23:14;4.73;;;3.90;;
18711;SDS011;9485;49.386;8.674;2023-12-28T00:28:36;5.37;;;4.27;;
18711;SDS011;9485;49.386;8.674;2023-12-28T00:33:57;5.90;;;4.20;;
18711;SDS011;9485;49.386;8.674;2023-12-28T00:39:18;4.07;;;3.67;;
18711;SDS011;9485;49.386;8.674;2023-12-28T00:44:40;4.30;;;3.77;;
18711;SDS011;9485;49.386;8.674;2023-12-28T00:50:01;4.63;;;4.10;;
18711;SDS011;9485;49.386;8.674;2023-12-28T00:55:22;6.83;;;4.20;;
18711;SDS011;9485;49.386;8.674;2023-12-28T01:00:45;4.63;;;3.97;;
18711;SDS011;9485;49.386;8.674;2023-12-28T01:06:06;5.37;;;4.00;;
18711;SDS011;9485;49.386;8.674;2023-12-28T01:11:26;6.10;;;4.20;;
18711;SDS011;9485;49.386;8.674;2023-12-28T01:16:49;4.67;;;4.13;;
18711;SDS011;9485;49.386;8.674;2023-12-28T01:22:09;4.83;;;3.77;;
18711;SDS011;9485;49.386;8.674;2023-12-28T01:27:30;4.77;;;4.27;;
18711;SDS011;9485;49.386;8.674;2023-12-28T01:32:51;5.77;;;3.93;;
18711;SDS011;9485;49.386;8.674;2023-12-28T01:38:12;4.23;;;3.70;;
18711;SDS011;9485;49.386;8.674;2023-12-28T01:43:33;3.97;;;3.37;;
18711;SDS011;9485;49.386;8.674;2023-12-28T01:48:55;4.40;;;3.53;;
18711;SDS011;9485;49.386;8.674;2023-12-28T01:54:15;5.50;;;3.50;;
18711;SDS011;9485;49.386;8.674;2023-12-28T01:59:37;3.60;;;3.30;;
18711;SDS011;9485;49.386;8.674;2023-12-28T02:04:59;4.73;;;3.40;;
18711;SDS011;9485;49.386;8.674;2023-12-28T02:10:21;4.77;;;3.77;;
18711;SDS011;9485;49.386;8.674;2023-12-28T02:15:42;4.33;;;3.40;;
18711;SDS011;9485;49.386;8.674;2023-12-28T02:21:06;4.40;;;3.30;;
18711;SDS011;9485;49.386;8.674;2023-12-28T02:26:31;4.03;;;3.20;;
18711;SDS011;9485;49.386;8.674;2023-12-28T02:31:53;3.93;;;3.13;;
18711;SDS011;9485;49.386;8.674;2023-12-28T02:37:23;3.73;;;3.23;;
18711;SDS011;9485;49.386;8.674;2023-12-28T02:42:48;4.90;;;2.87;;
18711;SDS011;9485;49.386;8.674;2023-12-28T02:48:08;3.47;;;3.00;;
18711;SDS011;9485;49.386;8.674;2023-12-28T02:53:30;4.67;;;3.33;;
18711;SDS011;9485;49.386;8.674;2023-12-28T02:58:51;4.70;;;3.20;;
18711;SDS011;9485;49.386;8.674;2023-12-28T03:04:12;3.97;;;2.90;;
18711;SDS011;9485;49.386;8.674;2023-12-28T03:09:32;6.43;;;2.90;;
18711;SDS011;9485;49.386;8.674;2023-12-28T03:14:54;4.33;;;3.10;;
18711;SDS011;9485;49.386;8.674;2023-12-28T03:20:15;3.47;;;3.10;;
18711;SDS011;9485;49.386;8.674;2023-12-28T03:25:36;3.43;;;2.90;;
18711;SDS011;9485;49.386;8.674;2023-12-28T03:30:58;3.63;;;2.83;;
18711;SDS011;9485;49.386;8.674;2023-12-28T03:36:21;4.40;;;3.33;;
18711;SDS011;9485;49.386;8.674;2023-12-28T03:41:42;3.87;;;2.90;;
18711;SDS011;9485;49.386;8.674;2023-12-28T03:47:04;5.10;;;2.63;;
18711;SDS011;9485;49.386;8.674;2023-12-28T03:52:25;3.77;;;2.73;;
18711;SDS011;9485;49.386;8.674;2023-12-28T03:57:49;2.83;;;2.53;;
18711;SDS011;9485;49.386;8.674;2023-12-28T04:03:11;3.07;;;2.77;;
18711;SDS011;9485;49.386;8.674;2023-12-28T04:08:31;3.13;;;2.53;;
18711;SDS011;9485;49.386;8.674;2023-12-28T04:13:52;3.70;;;2.33;;
18711;SDS011;9485;49.386;8.674;2023-12-28T04:19:15;2.73;;;2.47;;
18711;SDS011;9485;49.386;8.674;2023-12-28T04:24:36;2.53;;;2.07;;
18711;SDS011;9485;49.386;8.674;2023-12-28T04:29:56;2.53;;;2.23;;
18711;SDS011;9485;49.386;8.674;2023-12-28T04:35:18;2.03;;;1.80;;
18711;SDS011;9485;49.386;8.674;2023-12-28T04:40:39;1.90;;;1.70;;
18711;SDS011;9485;49.386;8.674;2023-12-28T04:46:02;1.73;;;1.40;;
18711;SDS011;9485;49.386;8.674;2023-12-28T04:51:25;1.43;;;1.33;;
18711;SDS011;9485;49.386;8.674;2023-12-28T04:56:45;1.93;;;1.20;;
18711;SDS011;9485;49.386;8.674;2023-12-28T05:02:06;1.53;;;1.30;;
18711;SDS011;9485;49.386;8.674;2023-12-28T05:07:28;1.37;;;1.03;;
18711;SDS011;9485;49.386;8.674;2023-12-28T05:12:48;2.37;;;1.37;;
18711;SDS011;9485;49.386;8.674;2023-12-28T05:18:09;1.30;;;1.20;;
18711;SDS011;9485;49.386;8.674;2023-12-28T05:23:31;2.17;;;1.60;;
18711;SDS011;9485;49.386;8.674;2023-12-28T05:28:51;1.90;;;1.43;;
18711;SDS011;9485;49.386;8.674;2023-12-28T05:34:11;2.03;;;1.60;;
18711;SDS011;9485;49.386;8.674;2023-12-28T05:39:33;1.60;;;1.40;;
18711;SDS011;9485;49.386;8.674;2023-12-28T05:44:54;2.27;;;1.50;;
18711;SDS011;9485;49.386;8.674;2023-12-28T05:50:14;2.27;;;1.70;;
18711;SDS011;9485;49.386;8.674;2023-12-28T05:55:36;1.60;;;1.50;;
18711;SDS011;9485;49.386;8.674;2023-12-28T06:00:57;2.07;;;1.47;;
18711;SDS011;9485;49.386;8.674;2023-12-28T06:06:18;2.30;;;1.43;;
18711;SDS011;9485;49.386;8.674;2023-12-28T06:11:40;1.63;;;1.53;;
18711;SDS011;9485;49.386;8.674;2023-12-28T06:17:00;1.50;;;1.40;;
18711;SDS011;9485;49.386;8.674;2023-12-28T06:22:21;2.23;;;1.40;;
18711;SDS011;9485;49.386;8.674;2023-12-28T06:27:47;1.97;;;1.73;;
18711;SDS011;9485;49.386;8.674;2023-12-28T06:33:08;1.50;;;1.40;;
18711;SDS011;9485;49.386;8.674;2023-12-28T06:38:28;1.97;;;1.70;;
18711;SDS011;9485;49.386;8.674;2023-12-28T06:43:51;1.93;;;1.83;;
18711;SDS011;9485;49.386;8.674;2023-12-28T06:49:12;2.10;;;1.60;;
18711;SDS011;9485;49.386;8.674;2023-12-28T06:54:33;1.50;;;1.40;;
18711;SDS011;9485;49.386;8.674;2023-12-28T06:59:55;3.17;;;1.77;;
18711;SDS011;9485;49.386;8.674;2023-12-28T07:05:18;1.67;;;1.53;;
18711;SDS011;9485;49.386;8.674;2023-12-28T07:10:39;2.20;;;1.57;;
18711;SDS011;9485;49.386;8.674;2023-12-28T07:16:01;1.73;;;1.40;;
18711;SDS011;9485;49.386;8.674;2023-12-28T07:21:23;1.90;;;1.50;;
18711;SDS011;9485;49.386;8.674;2023-12-28T07:26:43;1.60;;;1.40;;
18711;SDS011;9485;49.386;8.674;2023-12-28T07:32:05;2.07;;;1.60;;
18711;SDS011;9485;49.386;8.674;2023-12-28T07:37:28;2.07;;;1.60;;
18711;SDS011;9485;49.386;8.674;2023-12-28T07:42:49;2.20;;;1.50;;
18711;SDS011;9485;49.386;8.674;2023-12-28T07:48:10;2.30;;;2.00;;
18711;SDS011;9485;49.386;8.674;2023-12-28T07:53:31;3.93;;;1.70;;
18711;SDS011;9485;49.386;8.674;2023-12-28T07:58:52;2.70;;;1.63;;
18711;SDS011;9485;49.386;8.674;2023-12-28T08:04:14;1.63;;;1.43;;
18711;SDS011;9485;49.386;8.674;2023-12-28T08:09:35;2.37;;;1.23;;
18711;SDS011;9485;49.386;8.674;2023-12-28T08:14:55;1.70;;;1.47;;
18711;SDS011;9485;49.386;8.674;2023-12-28T08:20:18;2.07;;;1.60;;
18711;SDS011;9485;49.386;8.674;2023-12-28T08:25:38;1.87;;;1.60;;
18711;SDS011;9485;49.386;8.674;2023-12-28T08:30:59;1.60;;;1.47;;
18711;SDS011;9485;49.386;8.674;2023-12-28T08:36:21;1.80;;;1.33;;
18711;SDS011;9485;49.386;8.674;2023-12-28T08:41:42;2.23;;;1.60;;
18711;SDS011;9485;49.386;8.674;2023-12-28T08:47:02;2.10;;;1.63;;
18711;SDS011;9485;49.386;8.674;2023-12-28T08:52:24;1.57;;;1.47;;
18711;SDS011;9485;49.386;8.674;2023-12-28T08:57:45;1.70;;;1.60;;
18711;SDS011;9485;49.386;8.674;2023-12-28T09:03:06;1.70;;;1.43;;
18711;SDS011;9485;49.386;8.674;2023-12-28T09:08:28;2.10;;;1.67;;
18711;SDS011;9485;49.386;8.674;2023-12-28T09:13:49;2.07;;;1.80;;
18711;SDS011;9485;49.386;8.674;2023-12-28T09:19:09;3.80;;;1.60;;
18711;SDS011;9485;49.386;8.674;2023-12-28T09:24:32;2.40;;;1.90;;
18711;SDS011;9485;49.386;8.674;2023-12-28T09:29:53;2.13;;;1.90;;
18711;SDS011;9485;49.386;8.674;2023-12-28T09:35:13;2.37;;;1.97;;
18711;SDS011;9485;49.386;8.674;2023-12-28T09:40:36;2.67;;;2.00;;
18711;SDS011;9485;49.386;8.674;2023-12-28T09:45:57;2.17;;;1.90;;
18711;SDS011;9485;49.386;8.674;2023-12-28T09:51:17;1.87;;;1.77;;
18711;SDS011;9485;49.386;8.674;2023-12-28T09:56:40;3.73;;;2.10;;
18711;SDS011;9485;49.386;8.674;2023-12-28T10:02:00;2.27;;;1.80;;
18711;SDS011;9485;49.386;8.674;2023-12-28T10:07:21;1.97;;;1.83;;
18711;SDS011;9485;49.386;8.674;2023-12-28T10:12:44;2.50;;;1.83;;
18711;SDS011;9485;49.386;8.674;2023-12-28T10:18:06;2.13;;;1.83;;
18711;SDS011;9485;49.386;8.674;2023-12-28T10:23:27;2.60;;;2.10;;
18711;SDS011;9485;49.386;8.674;2023-12-28T10:28:49;2.00;;;1.80;;
18711;SDS011;9485;49.386;8.674;2023-12-28T10:34:09;3.23;;;2.13;;
18711;SDS011;9485;49.386;8.674;2023-12-28T10:39:30;2.43;;;1.57;;
18711;SDS011;9485;49.386;8.674;2023-12-28T10:44:55;1.80;;;1.70;;
18711;SDS011;9485;49.386;8.674;2023-12-28T10:50:23;2.07;;;1.87;;
18711;SDS011;9485;49.386;8.674;2023-12-28T10:55:51;2.00;;;1.80;;
18711;SDS011;9485;49.386;8.674;2023-12-28T11:01:28;1.90;;;1.80;;
18711;SDS011;9485;49.386;8.674;2023-12-28T11:06:56;2.33;;;2.10;;
18711;SDS011;9485;49.386;8.674;2023-12-28T11:12:19;3.53;;;2.03;;
18711;SDS011;9485;49.386;8.674;2023-12-28T11:17:42;3.80;;;2.10;;
18711;SDS011;9485;49.386;8.674;2023-12-28T11:23:03;2.63;;;2.17;;
18711;SDS011;9485;49.386;8.674;2023-12-28T11:28:26;2.97;;;1.83;;
18711;SDS011;9485;49.386;8.674;2023-12-28T11:33:50;2.67;;;1.93;;
18711;SDS011;9485;49.386;8.674;2023-12-28T11:39:12;2.30;;;2.10;;
18711;SDS011;9485;49.386;8.674;2023-12-28T11:44:41;3.63;;;2.10;;
18711;SDS011;9485;49.386;8.674;2023-12-28T11:50:07;3.03;;;2.07;;
18711;SDS011;9485;49.386;8.674;2023-12-28T11:55:29;2.37;;;2.10;;
18711;SDS011;9485;49.386;8.674;2023-12-28T12:00:50;4.17;;;2.60;;
18711;SDS011;9485;49.386;8.674;2023-12-28T12:06:11;2.63;;;1.90;;
18711;SDS011;9485;49.386;8.674;2023-12-28T12:11:33;2.70;;;2.50;;
18711;SDS011;9485;49.386;8.674;2023-12-28T12:16:54;2.43;;;2.23;;
18711;SDS011;9485;49.386;8.674;2023-12-28T12:22:16;3.50;;;2.57;;
18711;SDS011;9485;49.386;8.674;2023-12-28T12:27:38;2.13;;;1.93;;
18711;SDS011;9485;49.386;8.674;2023-12-28T12:32:58;2.60;;;2.27;;
18711;SDS011;9485;49.386;8.674;2023-12-28T12:38:20;2.63;;;2.00;;
18711;SDS011;9485;49.386;8.674;2023-12-28T12:43:41;2.43;;;1.93;;
18711;SDS011;9485;49.386;8.674;2023-12-28T12:49:02;2.03;;;1.83;;
18711;SDS011;9485;49.386;8.674;2023-12-28T12:54:24;2.60;;;2.07;;
18711;SDS011;9485;49.386;8.674;2023-12-28T12:59:46;2.27;;;1.87;;
18711;SDS011;9485;49.386;8.674;2023-12-28T13:05:09;2.40;;;2.20;;
18711;SDS011;9485;49.386;8.674;2023-12-28T13:10:33;3.27;;;2.30;;
18711;SDS011;9485;49.386;8.674;2023-12-28T13:15:53;4.27;;;2.67;;
18711;SDS011;9485;49.386;8.674;2023-12-28T13:21:15;3.10;;;2.80;;
18711;SDS011;9485;49.386;8.674;2023-12-28T13:26:37;2.67;;;2.37;;
18711;SDS011;9485;49.386;8.674;2023-12-28T13:31:58;2.50;;;2.30;;
18711;SDS011;9485;49.386;8.674;2023-12-28T13:37:18;2.50;;;2.30;;
18711;SDS011;9485;49.386;8.674;2023-12-28T13:42:40;2.27;;;2.07;;
18711;SDS011;9485;49.386;8.674;2023-12-28T13:48:01;3.50;;;2.57;;
18711;SDS011;9485;49.386;8.674;2023-12-28T13:53:22;3.03;;;2.57;;
18711;SDS011;9485;49.386;8.674;2023-12-28T13:58:43;2.73;;;2.40;;
18711;SDS011;9485;49.386;8.674;2023-12-28T14:04:04;2.53;;;2.33;;
18711;SDS011;9485;49.386;8.674;2023-12-28T14:09:25;3.77;;;2.80;;
18711;SDS011;9485;49.386;8.674;2023-12-28T14:14:47;3.33;;;3.00;;
18711;SDS011;9485;49.386;8.674;2023-12-28T14:20:07;5.30;;;2.83;;
18711;SDS011;9485;49.386;8.674;2023-12-28T14:25:30;3.10;;;2.80;;
18711;SDS011;9485;49.386;8.674;2023-12-28T14:30:53;2.87;;;2.67;;
18711;SDS011;9485;49.386;8.674;2023-12-28T14:36:15;3.20;;;2.47;;
18711;SDS011;9485;49.386;8.674;2023-12-28T14:41:47;4.30;;;2.60;;
18711;SDS011;9485;49.386;8.674;2023-12-28T14:47:08;3.67;;;2.90;;
18711;SDS011;9485;49.386;8.674;2023-12-28T14:52:29;3.83;;;2.60;;
18711;SDS011;9485;49.386;8.674;2023-12-28T14:57:51;3.17;;;2.80;;
18711;SDS011;9485;49.386;8.674;2023-12-28T15:03:13;3.70;;;3.10;;
18711;SDS011;9485;49.386;8.674;2023-12-28T15:08:34;4.40;;;2.97;;
18711;SDS011;9485;49.386;8.674;2023-12-28T15:13:54;4.27;;;3.03;;
18711;SDS011;9485;49.386;8.674;2023-12-28T15:19:17;3.50;;;2.77;;
18711;SDS011;9485;49.386;8.674;2023-12-28T15:24:39;3.03;;;2.77;;
18711;SDS011;9485;49.386;8.674;2023-12-28T15:30:00;3.27;;;2.87;;
18711;SDS011;9485;49.386;8.674;2023-12-28T15:35:22;4.77;;;2.93;;
18711;SDS011;9485;49.386;8.674;2023-12-28T15:40:43;3.57;;;2.87;;
18711;SDS011;9485;49.386;8.674;2023-12-28T15:46:03;3.17;;;2.80;;
18711;SDS011;9485;49.386;8.674;2023-12-28T15:51:25;3.87;;;2.97;;
18711;SDS011;9485;49.386;8.674;2023-12-28T15:56:46;2.90;;;2.60;;
18711;SDS011;9485;49.386;8.674;2023-12-28T16:02:06;2.83;;;2.60;;
18711;SDS011;9485;49.386;8.674;2023-12-28T16:07:28;5.10;;;3.30;;
18711;SDS011;9485;49.386;8.674;2023-12-28T16:12:49;3.20;;;2.93;;
18711;SDS011;9485;49.386;8.674;2023-12-28T16:18:09;2.90;;;2.60;;
18711;SDS011;9485;49.386;8.674;2023-12-28T16:23:33;4.60;;;2.90;;
18711;SDS011;9485;49.386;8.674;2023-12-28T16:28:54;4.20;;;3.33;;
18711;SDS011;9485;49.386;8.674;2023-12-28T16:34:15;3.97;;;3.33;;
18711;SDS011;9485;49.386;8.674;2023-12-28T16:39:37;6.50;;;3.17;;
18711;SDS011;9485;49.386;8.674;2023-12-28T16:44:58;3.80;;;2.93;;
18711;SDS011;9485;49.386;8.674;2023-12-28T16:50:19;3.23;;;2.90;;
18711;SDS011;9485;49.386;8.674;2023-12-28T16:55:44;4.67;;;3.07;;
18711;SDS011;9485;49.386;8.674;2023-12-28T17:01:04;3.70;;;3.30;;
18711;SDS011;9485;49.386;8.674;2023-12-28T17:06:25;4.67;;;3.77;;
18711;SDS011;9485;49.386;8.674;2023-12-28T17:11:48;4.53;;;3.43;;
18711;SDS011;9485;49.386;8.674;2023-12-28T17:17:23;4.03;;;3.33;;
18711;SDS011;9485;49.386;8.674;2023-12-28T17:22:44;3.53;;;3.23;;
18711;SDS011;9485;49.386;8.674;2023-12-28T17:28:11;4.33;;;3.43;;
18711;SDS011;9485;49.386;8.674;2023-12-28T17:33:37;5.43;;;4.00;;
18711;SDS011;9485;49.386;8.674;2023-12-28T17:38:59;4.83;;;4.07;;
18711;SDS011;9485;49.386;8.674;2023-12-28T17:44:29;4.87;;;3.77;;
18711;SDS011;9485;49.386;8.674;2023-12-28T17:50:00;5.67;;;4.13;;
18711;SDS011;9485;49.386;8.674;2023-12-28T17:55:22;5.00;;;4.17;;
18711;SDS011;9485;49.386;8.674;2023-12-28T18:00:44;5.43;;;4.00;;
18711;SDS011;9485;49.386;8.674;2023-12-28T18:06:14;5.63;;;4.13;;
18711;SDS011;9485;49.386;8.674;2023-12-28T18:11:34;5.10;;;4.60;;
18711;SDS011;9485;49.386;8.674;2023-12-28T18:16:56;5.23;;;4.40;;
18711;SDS011;9485;49.386;8.674;2023-12-28T18:22:17;5.43;;;4.83;;
18711;SDS011;9485;49.386;8.674;2023-12-28T18:27:37;6.70;;;4.83;;
18711;SDS011;9485;49.386;8.674;2023-12-28T18:32:59;6.07;;;5.23;;
18711;SDS011;9485;49.386;8.674;2023-12-28T18:38:20;6.97;;;5.07;;
18711;SDS011;9485;49.386;8.674;2023-12-28T18:43:40;5.87;;;5.27;;
18711;SDS011;9485;49.386;8.674;2023-12-28T18:49:02;5.80;;;5.20;;
18711;SDS011;9485;49.386;8.674;2023-12-28T18:54:24;7.67;;;5.13;;
18711;SDS011;9485;49.386;8.674;2023-12-28T18:59:44;6.67;;;5.47;;
18711;SDS011;9485;49.386;8.674;2023-12-28T19:05:06;5.53;;;5.03;;
18711;SDS011;9485;49.386;8.674;2023-12-28T19:10:27;6.33;;;5.43;;
18711;SDS011;9485;49.386;8.674;2023-12-28T19:15:48;7.30;;;5.67;;
18711;SDS011;9485;49.386;8.674;2023-12-28T19:21:10;6.63;;;5.27;;
18711;SDS011;9485;49.386;8.674;2023-12-28T19:26:31;6.70;;;5.90;;
18711;SDS011;9485;49.386;8.674;2023-12-28T19:31:51;7.40;;;5.70;;
18711;SDS011;9485;49.386;8.674;2023-12-28T19:37:15;7.97;;;5.83;;
18711;SDS011;9485;49.386;8.674;2023-12-28T19:42:35;6.43;;;5.40;;
18711;SDS011;9485;49.386;8.674;2023-12-28T19:47:55;7.60;;;5.67;;
18711;SDS011;9485;49.386;8.674;2023-12-28T19:53:18;6.67;;;5.60;;
18711;SDS011;9485;49.386;8.674;2023-12-28T19:58:39;8.10;;;5.90;;
18711;SDS011;9485;49.386;8.674;2023-12-28T20:04:00;6.87;;;5.57;;
18711;SDS011;9485;49.386;8.674;2023-12-28T20:09:22;6.83;;;5.57;;
18711;SDS011;9485;49.386;8.674;2023-12-28T20:14:44;6.30;;;5.33;;
18711;SDS011;9485;49.386;8.674;2023-12-28T20:20:05;6.43;;;5.60;;
18711;SDS011;9485;49.386;8.674;2023-12-28T20:25:29;6.33;;;4.77;;
18711;SDS011;9485;49.386;8.674;2023-12-28T20:30:51;5.80;;;5.20;;
18711;SDS011;9485;49.386;8.674;2023-12-28T20:36:12;5.07;;;4.57;;
18711;SDS011;9485;49.386;8.674;2023-12-28T20:41:34;5.40;;;4.40;;
18711;SDS011;9485;49.386;8.674;2023-12-28T20:46:54;5.17;;;4.53;;
18711;SDS011;9485;49.386;8.674;2023-12-28T20:52:15;5.00;;;4.50;;
18711;SDS011;9485;49.386;8.674;2023-12-28T20:57:37;5.23;;;4.67;;
18711;SDS011;9485;49.386;8.674;2023-12-28T21:02:58;5.03;;;4.10;;
18711;SDS011;9485;49.386;8.674;2023-12-28T21:08:18;4.33;;;3.80;;
18711;SDS011;9485;49.386;8.674;2023-12-28T21:13:40;4.87;;;4.37;;
18711;SDS011;9485;49.386;8.674;2023-12-28T21:19:00;5.03;;;4.27;;
18711;SDS011;9485;49.386;8.674;2023-12-28T21:24:22;4.70;;;3.90;;
18711;SDS011;9485;49.386;8.674;2023-12-28T21:29:44;4.70;;;4.20;;
18711;SDS011;9485;49.386;8.674;2023-12-28T21:35:04;4.80;;;4.00;;
18711;SDS011;9485;49.386;8.674;2023-12-28T21:40:26;4.17;;;3.60;;
18711;SDS011;9485;49.386;8.674;2023-12-28T21:45:49;4.80;;;3.77;;
18711;SDS011;9485;49.386;8.674;2023-12-28T21:51:10;4.93;;;3.77;;
18711;SDS011;9485;49.386;8.674;2023-12-28T21:56:31;5.33;;;4.03;;
18711;SDS011;9485;49.386;8.674;2023-12-28T22:01:53;4.77;;;3.53;;
18711;SDS011;9485;49.386;8.674;2023-12-28T22:07:13;3.90;;;3.50;;
18711;SDS011;9485;49.386;8.674;2023-12-28T22:12:34;4.67;;;3.67;;
18711;SDS011;9485;49.386;8.674;2023-12-28T22:17:56;4.73;;;3.67;;
18711;SDS011;9485;49.386;8.674;2023-12-28T22:23:17;3.83;;;3.43;;
18711;SDS011;9485;49.386;8.674;2023-12-28T22:28:38;4.33;;;3.60;;
18711;SDS011;9485;49.386;8.674;2023-12-28T22:33:59;5.23;;;3.63;;
18711;SDS011;9485;49.386;8.674;2023-12-28T22:39:20;5.77;;;3.97;;
18711;SDS011;9485;49.386;8.674;2023-12-28T22:44:40;3.97;;;3.57;;
18711;SDS011;9485;49.386;8.674;2023-12-28T22:50:02;3.53;;;3.23;;
18711;SDS011;9485;49.386;8.674;2023-12-28T22:55:24;4.17;;;3.23;;
18711;SDS011;9485;49.386;8.674;2023-12-28T23:00:44;3.73;;;3.27;;
18711;SDS011;9485;49.386;8.674;2023-12-28T23:06:06;3.63;;;3.33;;
18711;SDS011;9485;49.386;8.674;2023-12-28T23:11:27;4.47;;;3.13;;
18711;SDS011;9485;49.386;8.674;2023-12-28T23:16:47;3.67;;;3.30;;
18711;SDS011;9485;49.386;8.674;2023-12-28T23:22:09;3.07;;;2.83;;
18711;SDS011;9485;49.386;8.674;2023-12-28T23:27:30;3.57;;;2.93;;
18711;SDS011;9485;49.386;8.674;2023-12-28T23:32:51;3.80;;;3.10;;
18711;SDS011;9485;49.386;8.674;2023-12-28T23:38:13;3.73;;;3.23;;
18711;SDS011;9485;49.386;8.674;2023-12-28T23:43:33;3.60;;;3.23;;
18711;SDS011;9485;49.386;8.674;2023-12-28T23:48:54;4.67;;;3.23;;
18711;SDS011;9485;49.386;8.674;2023-12-28T23:54:15;3.17;;;2.87;;
18711;SDS011;9485;49.386;8.674;2023-12-28T23:59:36;3.37;;;2.87;;
